createdAt,value
2019-03-22T00:00:09.804Z,4.80
2019-03-22T00:02:39.367Z,4.60
2019-03-22T00:05:08.792Z,4.80
2019-03-22T00:07:38.284Z,4.90
2019-03-22T00:10:07.738Z,4.90
2019-03-22T00:12:38.023Z,5.00
2019-03-22T00:15:07.601Z,5.00
2019-03-22T00:17:37.180Z,4.90
2019-03-22T00:20:09.304Z,5.00
2019-03-22T00:22:38.842Z,5.10
2019-03-22T00:25:08.363Z,4.90
2019-03-22T00:27:37.795Z,4.60
2019-03-22T00:30:07.482Z,4.40
2019-03-22T00:32:36.947Z,3.90
2019-03-22T00:35:06.660Z,3.60
2019-03-22T00:37:36.082Z,3.40
2019-03-22T00:40:05.600Z,3.40
2019-03-22T00:42:35.103Z,3.50
2019-03-22T00:45:04.945Z,3.70
2019-03-22T00:47:34.528Z,3.70
2019-03-22T00:50:04.221Z,3.70
2019-03-22T00:52:33.599Z,3.80
2019-03-22T00:55:03.099Z,3.90
2019-03-22T00:57:32.610Z,3.80
2019-03-22T01:00:01.979Z,3.90
2019-03-22T01:02:31.394Z,3.90
2019-03-22T01:05:00.825Z,3.90
2019-03-22T01:07:30.318Z,3.80
2019-03-22T01:09:59.772Z,3.90
2019-03-22T01:12:29.264Z,3.80
2019-03-22T01:14:58.770Z,3.70
2019-03-22T01:17:28.286Z,3.60
2019-03-22T01:20:00.034Z,3.40
2019-03-22T01:22:29.524Z,3.20
2019-03-22T01:24:59.050Z,3.20
2019-03-22T01:27:39.615Z,3.10
2019-03-22T01:30:04.067Z,3.10
2019-03-22T01:32:33.477Z,3.00
2019-03-22T01:35:03.544Z,3.10
2019-03-22T01:37:32.991Z,3.10
2019-03-22T01:40:02.537Z,3.20
2019-03-22T01:42:32.194Z,3.00
2019-03-22T01:45:01.735Z,2.90
2019-03-22T01:47:31.237Z,2.80
2019-03-22T01:50:00.846Z,2.70
2019-03-22T01:52:30.375Z,2.70
2019-03-22T01:54:59.967Z,2.60
2019-03-22T01:57:29.446Z,2.60
2019-03-22T01:59:58.973Z,2.60
2019-03-22T02:02:28.481Z,2.50
2019-03-22T02:04:57.998Z,2.60
2019-03-22T02:07:27.392Z,2.70
2019-03-22T02:09:56.925Z,2.80
2019-03-22T02:12:26.309Z,2.80
2019-03-22T02:14:55.853Z,2.80
2019-03-22T02:17:25.430Z,2.90
2019-03-22T02:19:54.935Z,3.00
2019-03-22T02:22:24.343Z,3.10
2019-03-22T02:24:53.922Z,2.70
2019-03-22T02:27:23.407Z,2.70
2019-03-22T02:29:53.130Z,2.50
2019-03-22T02:32:22.560Z,2.60
2019-03-22T02:34:52.168Z,2.60
2019-03-22T02:37:21.700Z,2.50
2019-03-22T02:39:51.064Z,2.50
2019-03-22T02:42:20.436Z,2.50
2019-03-22T02:44:49.777Z,2.50
2019-03-22T02:47:19.149Z,2.40
2019-03-22T02:49:48.608Z,2.40
2019-03-22T02:52:17.958Z,2.40
2019-03-22T02:54:47.364Z,2.40
2019-03-22T02:57:16.866Z,2.40
2019-03-22T02:59:46.252Z,2.30
2019-03-22T03:02:15.582Z,2.30
2019-03-22T03:04:44.969Z,2.20
2019-03-22T03:07:15.165Z,2.20
2019-03-22T03:09:44.599Z,2.10
2019-03-22T03:12:14.172Z,2.10
2019-03-22T03:14:43.618Z,2.10
2019-03-22T03:17:13.041Z,2.10
2019-03-22T03:19:42.521Z,2.10
2019-03-22T03:22:12.040Z,2.20
2019-03-22T03:24:41.811Z,2.30
2019-03-22T03:27:11.368Z,2.50
2019-03-22T03:29:40.905Z,2.50
2019-03-22T03:32:10.362Z,2.50
2019-03-22T03:34:39.687Z,2.50
2019-03-22T03:37:09.205Z,2.60
2019-03-22T03:39:38.741Z,2.60
2019-03-22T03:42:08.259Z,2.60
2019-03-22T03:44:37.797Z,2.60
2019-03-22T03:47:10.282Z,2.60
2019-03-22T03:49:38.502Z,2.60
2019-03-22T03:52:08.025Z,2.50
2019-03-22T03:54:37.553Z,2.50
2019-03-22T03:57:06.888Z,2.40
2019-03-22T03:59:36.199Z,2.60
2019-03-22T04:02:05.642Z,2.60
2019-03-22T04:04:35.151Z,2.60
2019-03-22T04:07:04.804Z,2.80
2019-03-22T04:09:34.259Z,2.80
2019-03-22T04:12:03.672Z,2.80
2019-03-22T04:14:33.170Z,2.70
2019-03-22T04:17:02.507Z,2.80
2019-03-22T04:19:32.011Z,2.90
2019-03-22T04:22:03.579Z,2.90
2019-03-22T04:24:33.352Z,2.80
2019-03-22T04:27:02.970Z,2.70
2019-03-22T04:29:32.436Z,2.60
2019-03-22T04:32:01.816Z,2.60
2019-03-22T04:34:31.266Z,2.50
2019-03-22T04:37:01.988Z,2.40
2019-03-22T04:39:31.375Z,2.40
2019-03-22T04:42:00.838Z,2.40
2019-03-22T04:44:30.222Z,2.50
2019-03-22T04:46:59.510Z,2.30
2019-03-22T04:49:28.817Z,2.50
2019-03-22T04:51:58.737Z,2.30
2019-03-22T04:54:28.298Z,2.20
2019-03-22T04:56:57.947Z,2.20
2019-03-22T04:59:29.059Z,2.20
2019-03-22T05:01:58.701Z,2.30
2019-03-22T05:04:28.316Z,2.30
2019-03-22T05:06:57.918Z,2.40
2019-03-22T05:09:28.240Z,2.40
2019-03-22T05:11:57.850Z,2.30
2019-03-22T05:14:27.282Z,2.20
2019-03-22T05:16:56.878Z,2.10
2019-03-22T05:19:26.861Z,2.00
2019-03-22T05:21:56.338Z,1.90
2019-03-22T05:24:25.859Z,1.60
2019-03-22T05:26:55.330Z,1.80
2019-03-22T05:29:30.474Z,1.70
2019-03-22T05:32:04.286Z,1.70
2019-03-22T05:34:33.660Z,1.70
2019-03-22T05:37:03.012Z,1.80
2019-03-22T05:39:32.547Z,1.80
2019-03-22T05:42:03.256Z,1.80
2019-03-22T05:44:32.636Z,2.00
2019-03-22T05:47:03.366Z,1.90
2019-03-22T05:49:32.806Z,2.00
2019-03-22T05:52:02.171Z,1.90
2019-03-22T05:54:31.557Z,1.90
2019-03-22T05:57:01.035Z,1.80
2019-03-22T05:59:41.629Z,1.90
2019-03-22T06:02:01.730Z,1.90
2019-03-22T06:04:31.509Z,2.00
2019-03-22T06:07:00.927Z,2.00
2019-03-22T06:09:30.349Z,2.10
2019-03-22T06:11:59.760Z,2.20
2019-03-22T06:14:29.914Z,2.50
2019-03-22T06:16:59.313Z,3.00
2019-03-22T06:19:28.791Z,4.10
2019-03-22T06:21:58.354Z,4.70
2019-03-22T06:24:27.738Z,5.40
2019-03-22T06:26:58.370Z,6.00
2019-03-22T06:29:28.255Z,6.80
2019-03-22T06:31:57.581Z,7.50
2019-03-22T06:34:27.012Z,7.70
2019-03-22T06:36:56.520Z,8.10
2019-03-22T06:39:26.563Z,7.80
2019-03-22T06:41:59.138Z,7.60
2019-03-22T06:44:28.617Z,7.50
2019-03-22T06:46:58.090Z,7.80
2019-03-22T06:49:27.495Z,8.60
2019-03-22T06:51:56.897Z,9.20
2019-03-22T06:54:31.649Z,9.30
2019-03-22T06:56:57.514Z,9.10
2019-03-22T06:59:26.991Z,9.00
2019-03-22T07:01:56.353Z,9.00
2019-03-22T07:04:25.856Z,9.50
2019-03-22T07:06:55.237Z,10.00
2019-03-22T07:09:24.855Z,10.30
2019-03-22T07:11:54.188Z,10.10
2019-03-22T07:14:23.545Z,10.00
2019-03-22T07:16:52.934Z,10.20
2019-03-22T07:19:22.280Z,10.50
2019-03-22T07:21:51.827Z,10.60
2019-03-22T07:24:21.263Z,10.90
2019-03-22T07:26:51.083Z,11.70
2019-03-22T07:29:20.665Z,12.80
2019-03-22T07:31:50.123Z,13.20
2019-03-22T07:34:19.611Z,13.90
2019-03-22T07:36:49.033Z,14.40
2019-03-22T07:39:18.390Z,14.80
2019-03-22T07:41:47.991Z,14.50
2019-03-22T07:44:17.831Z,14.60
2019-03-22T07:46:47.171Z,14.40
2019-03-22T07:49:16.591Z,13.90
2019-03-22T07:51:46.543Z,13.70
2019-03-22T07:54:16.129Z,13.50
2019-03-22T07:56:45.771Z,13.30
2019-03-22T07:59:15.279Z,13.80
2019-03-22T08:01:44.804Z,13.40
2019-03-22T08:04:14.301Z,13.60
2019-03-22T08:06:43.825Z,13.30
2019-03-22T08:09:13.370Z,13.00
2019-03-22T08:11:42.899Z,13.20
2019-03-22T08:14:12.317Z,13.20
2019-03-22T08:16:41.800Z,13.20
2019-03-22T08:19:11.259Z,12.90
2019-03-22T08:21:40.748Z,12.90
2019-03-22T08:24:10.191Z,12.50
2019-03-22T08:26:39.634Z,12.50
2019-03-22T08:29:09.032Z,12.50
2019-03-22T08:31:39.251Z,12.70
2019-03-22T08:34:08.718Z,12.80
2019-03-22T08:36:38.167Z,12.70
2019-03-22T08:39:08.641Z,13.00
2019-03-22T08:41:38.453Z,13.10
2019-03-22T08:44:07.896Z,13.20
2019-03-22T08:46:37.454Z,13.50
2019-03-22T08:49:09.504Z,13.80
2019-03-22T08:51:38.204Z,14.10
2019-03-22T08:54:07.710Z,16.20
2019-03-22T08:56:37.049Z,14.10
2019-03-22T08:59:06.465Z,14.20
2019-03-22T09:01:35.831Z,14.30
2019-03-22T09:04:05.213Z,14.50
2019-03-22T09:06:34.704Z,14.00
2019-03-22T09:09:05.810Z,14.20
2019-03-22T09:11:35.182Z,14.50
2019-03-22T09:14:04.651Z,14.60
2019-03-22T09:16:34.211Z,14.60
2019-03-22T09:19:03.596Z,14.80
2019-03-22T09:21:33.105Z,15.00
2019-03-22T09:24:02.730Z,14.90
2019-03-22T09:26:32.201Z,15.00
2019-03-22T09:29:01.608Z,15.10
2019-03-22T09:31:31.047Z,14.90
2019-03-22T09:34:00.612Z,15.20
2019-03-22T09:36:30.194Z,15.20
2019-03-22T09:38:59.678Z,15.40
2019-03-22T09:41:29.141Z,15.90
2019-03-22T09:43:59.012Z,15.90
2019-03-22T09:46:28.380Z,16.10
2019-03-22T09:48:57.845Z,16.10
2019-03-22T09:51:27.344Z,16.30
2019-03-22T09:53:56.726Z,16.50
2019-03-22T09:56:26.185Z,16.50
2019-03-22T09:58:55.639Z,18.10
2019-03-22T10:01:25.075Z,16.50
2019-03-22T10:03:54.568Z,16.70
2019-03-22T10:06:24.200Z,16.70
2019-03-22T10:08:53.722Z,16.90
2019-03-22T10:11:23.336Z,17.00
2019-03-22T10:13:52.842Z,17.10
2019-03-22T10:16:22.402Z,17.20
2019-03-22T10:18:52.051Z,16.90
2019-03-22T10:21:22.573Z,16.80
2019-03-22T10:23:52.770Z,16.90
2019-03-22T10:26:22.255Z,16.70
2019-03-22T10:28:51.675Z,16.60
2019-03-22T10:31:21.280Z,16.90
2019-03-22T10:33:50.769Z,17.40
2019-03-22T10:36:20.420Z,17.90
2019-03-22T10:38:50.515Z,17.80
2019-03-22T10:41:20.174Z,17.50
2019-03-22T10:43:49.632Z,17.20
2019-03-22T10:46:19.031Z,17.10
2019-03-22T10:48:48.412Z,17.00
2019-03-22T10:51:21.327Z,17.30
2019-03-22T10:53:49.097Z,17.40
2019-03-22T10:56:18.508Z,17.30
2019-03-22T10:58:47.886Z,17.20
2019-03-22T11:01:17.488Z,17.10
2019-03-22T11:03:47.115Z,17.10
2019-03-22T11:06:25.807Z,16.90
2019-03-22T11:08:47.840Z,16.80
2019-03-22T11:11:17.277Z,16.90
2019-03-22T11:13:46.619Z,17.20
2019-03-22T11:16:16.021Z,16.90
2019-03-22T11:18:45.350Z,17.20
2019-03-22T11:21:14.765Z,17.30
2019-03-22T11:23:44.112Z,17.10
2019-03-22T11:26:13.473Z,16.90
2019-03-22T11:28:42.834Z,16.70
2019-03-22T11:31:12.285Z,17.00
2019-03-22T11:33:41.700Z,16.80
2019-03-22T11:36:11.159Z,16.90
2019-03-22T11:38:40.614Z,17.20
2019-03-22T11:41:10.079Z,17.50
2019-03-22T11:43:39.544Z,17.50
2019-03-22T11:46:09.043Z,17.30
2019-03-22T11:48:38.818Z,17.40
2019-03-22T11:51:08.341Z,17.40
2019-03-22T11:53:37.876Z,17.60
2019-03-22T11:56:09.388Z,17.90
2019-03-22T11:58:38.785Z,18.00
2019-03-22T12:01:08.266Z,17.90
2019-03-22T12:03:38.129Z,17.70
2019-03-22T12:06:07.614Z,17.80
2019-03-22T12:08:37.184Z,17.60
2019-03-22T12:11:06.845Z,17.40
2019-03-22T12:13:36.230Z,17.30
2019-03-22T12:16:05.928Z,17.50
2019-03-22T12:18:36.570Z,17.60
2019-03-22T12:21:06.095Z,17.50
2019-03-22T12:23:35.807Z,17.50
2019-03-22T12:26:06.529Z,17.30
2019-03-22T12:28:36.231Z,17.60
2019-03-22T12:31:05.833Z,17.50
2019-03-22T12:33:35.472Z,17.70
2019-03-22T12:36:04.963Z,17.40
2019-03-22T12:38:34.406Z,17.20
2019-03-22T12:41:03.903Z,17.30
2019-03-22T12:43:34.232Z,17.60
2019-03-22T12:46:03.890Z,18.00
2019-03-22T12:48:33.401Z,17.70
2019-03-22T12:51:02.869Z,17.80
2019-03-22T12:53:32.320Z,18.00
2019-03-22T12:56:01.945Z,18.20
2019-03-22T12:58:31.522Z,18.20
2019-03-22T13:01:00.865Z,17.90
2019-03-22T13:03:30.405Z,17.90
2019-03-22T13:05:59.881Z,18.20
2019-03-22T13:08:29.393Z,18.20
2019-03-22T13:10:58.893Z,18.20
2019-03-22T13:13:28.407Z,18.30
2019-03-22T13:15:57.801Z,18.10
2019-03-22T13:18:27.309Z,18.40
2019-03-22T13:20:56.813Z,18.80
2019-03-22T13:23:26.355Z,19.40
2019-03-22T13:25:55.883Z,19.50
2019-03-22T13:28:25.347Z,19.90
2019-03-22T13:30:54.762Z,20.10
2019-03-22T13:33:24.154Z,19.30
2019-03-22T13:35:53.672Z,19.10
2019-03-22T13:38:23.043Z,19.20
2019-03-22T13:40:52.465Z,18.80
2019-03-22T13:43:21.921Z,18.80
2019-03-22T13:45:51.406Z,18.70
2019-03-22T13:48:20.781Z,19.10
2019-03-22T13:50:50.313Z,19.50
2019-03-22T13:53:19.847Z,20.10
2019-03-22T13:55:49.306Z,19.90
2019-03-22T13:58:18.740Z,19.90
2019-03-22T14:00:48.206Z,19.60
2019-03-22T14:03:17.579Z,19.50
2019-03-22T14:05:47.072Z,20.30
2019-03-22T14:08:16.691Z,20.40
2019-03-22T14:10:46.228Z,20.80
2019-03-22T14:13:15.789Z,21.50
2019-03-22T14:15:45.284Z,21.30
2019-03-22T14:18:14.779Z,21.40
2019-03-22T14:20:44.247Z,22.00
2019-03-22T14:23:13.746Z,22.20
2019-03-22T14:25:43.274Z,22.00
2019-03-22T14:28:12.830Z,21.80
2019-03-22T14:30:42.234Z,21.50
2019-03-22T14:33:13.631Z,21.80
2019-03-22T14:35:42.952Z,21.50
2019-03-22T14:38:12.308Z,21.30
2019-03-22T14:40:41.873Z,21.70
2019-03-22T14:43:11.341Z,21.80
2019-03-22T14:45:40.764Z,22.80
2019-03-22T14:48:10.154Z,23.20
2019-03-22T14:50:39.718Z,23.00
2019-03-22T14:53:09.204Z,23.40
2019-03-22T14:55:38.649Z,22.90
2019-03-22T14:58:08.114Z,22.10
2019-03-22T15:00:39.504Z,22.50
2019-03-22T15:03:28.026Z,21.90
2019-03-22T15:05:57.742Z,21.30
2019-03-22T15:08:27.211Z,21.20
2019-03-22T15:10:56.682Z,20.80
2019-03-22T15:13:35.364Z,20.70
2019-03-22T15:16:29.946Z,21.60
2019-03-22T15:19:25.462Z,21.90
2019-03-22T15:22:12.363Z,21.90
2019-03-22T15:25:09.078Z,21.30
2019-03-22T15:27:56.025Z,21.20
2019-03-22T15:30:37.311Z,21.60
2019-03-22T15:33:34.576Z,21.90
2019-03-22T15:36:25.470Z,22.50
2019-03-22T15:39:23.521Z,24.20
2019-03-22T15:41:53.198Z,24.80
2019-03-22T15:46:52.067Z,24.30
2019-03-22T15:49:21.535Z,23.00
2019-03-22T15:51:50.869Z,22.10
2019-03-22T15:54:20.383Z,20.40
2019-03-22T15:56:49.967Z,20.00
2019-03-22T15:59:21.154Z,20.00
2019-03-22T16:01:50.514Z,20.00
2019-03-22T16:04:20.031Z,19.90
2019-03-22T16:06:49.469Z,19.80
2019-03-22T16:09:18.972Z,19.40
2019-03-22T16:11:48.436Z,19.50
2019-03-22T16:14:17.843Z,19.80
2019-03-22T16:16:47.317Z,20.00
2019-03-22T16:19:16.766Z,20.10
2019-03-22T16:21:46.234Z,20.30
2019-03-22T16:24:15.714Z,20.50
2019-03-22T16:26:45.120Z,19.90
2019-03-22T16:29:14.561Z,20.10
2019-03-22T16:31:44.044Z,20.50
2019-03-22T16:34:13.488Z,20.20
2019-03-22T16:36:42.964Z,20.20
2019-03-22T16:39:14.528Z,20.00
2019-03-22T16:41:43.949Z,20.00
2019-03-22T16:44:13.410Z,19.80
2019-03-22T16:46:42.815Z,19.90
2019-03-22T16:49:12.328Z,19.50
2019-03-22T16:51:41.701Z,18.80
2019-03-22T16:54:11.171Z,18.30
2019-03-22T16:56:40.715Z,18.00
2019-03-22T16:59:10.118Z,17.90
2019-03-22T17:01:39.458Z,17.80
2019-03-22T17:04:08.934Z,17.20
2019-03-22T17:06:38.473Z,16.80
2019-03-22T17:09:07.848Z,16.60
2019-03-22T17:11:37.269Z,16.40
2019-03-22T17:14:06.774Z,16.20
2019-03-22T17:16:36.321Z,16.00
2019-03-22T17:19:05.816Z,15.90
2019-03-22T17:21:35.196Z,15.90
2019-03-22T17:24:04.598Z,15.70
2019-03-22T17:26:34.004Z,15.40
2019-03-22T17:29:03.559Z,15.10
2019-03-22T17:31:38.573Z,14.90
2019-03-22T17:34:14.238Z,14.50
2019-03-22T17:36:38.984Z,14.20
2019-03-22T17:39:08.500Z,14.10
2019-03-22T17:41:37.947Z,14.00
2019-03-22T17:44:07.365Z,13.90
2019-03-22T17:46:36.796Z,13.80
2019-03-22T17:49:06.349Z,13.80
2019-03-22T17:51:35.711Z,13.60
2019-03-22T17:54:05.226Z,13.50
2019-03-22T17:56:34.642Z,13.30
2019-03-22T17:59:04.110Z,13.40
2019-03-22T18:01:33.514Z,13.20
2019-03-22T18:04:02.879Z,13.20
2019-03-22T18:06:32.429Z,13.10
2019-03-22T18:09:01.971Z,13.10
2019-03-22T18:11:31.668Z,13.00
2019-03-22T18:14:01.300Z,12.90
2019-03-22T18:16:30.764Z,12.80
2019-03-22T18:19:00.509Z,12.90
2019-03-22T18:21:29.973Z,12.80
2019-03-22T18:23:59.441Z,12.80
2019-03-22T18:26:28.880Z,12.80
2019-03-22T18:28:58.265Z,12.70
2019-03-22T18:31:27.728Z,12.70
2019-03-22T18:33:57.227Z,12.50
2019-03-22T18:36:26.618Z,12.40
2019-03-22T18:38:56.093Z,12.20
2019-03-22T18:41:25.587Z,12.00
2019-03-22T18:43:55.011Z,11.70
2019-03-22T18:46:24.509Z,11.40
2019-03-22T18:48:54.026Z,11.20
2019-03-22T18:51:23.484Z,11.00
2019-03-22T18:53:52.894Z,10.80
2019-03-22T18:56:22.573Z,10.50
2019-03-22T18:58:52.069Z,10.30
2019-03-22T19:01:21.848Z,10.10
2019-03-22T19:03:51.501Z,9.90
2019-03-22T19:06:21.923Z,9.90
2019-03-22T19:08:51.816Z,10.00
2019-03-22T19:11:21.461Z,10.00
2019-03-22T19:13:51.067Z,9.90
2019-03-22T19:16:22.103Z,10.10
2019-03-22T19:18:51.721Z,10.00
2019-03-22T19:21:21.122Z,9.90
2019-03-22T19:23:50.593Z,9.80
2019-03-22T19:26:20.301Z,9.50
2019-03-22T19:28:49.853Z,9.20
2019-03-22T19:31:19.475Z,9.40
2019-03-22T19:33:52.143Z,9.20
2019-03-22T19:36:21.633Z,9.20
2019-03-22T19:38:51.002Z,9.10
2019-03-22T19:41:20.612Z,8.90
2019-03-22T19:43:50.216Z,8.70
2019-03-22T19:46:19.876Z,8.60
2019-03-22T19:48:49.595Z,8.50
2019-03-22T19:51:19.128Z,8.40
2019-03-22T19:53:48.599Z,8.20
2019-03-22T19:56:18.309Z,8.00
2019-03-22T19:58:47.929Z,7.90
2019-03-22T20:01:20.372Z,7.90
2019-03-22T20:03:49.935Z,7.90
2019-03-22T20:06:19.326Z,8.00
2019-03-22T20:08:48.821Z,8.10
2019-03-22T20:11:18.344Z,8.00
2019-03-22T20:13:48.051Z,7.80
2019-03-22T20:16:17.606Z,7.80
2019-03-22T20:18:47.239Z,7.70
2019-03-22T20:21:17.266Z,7.60
2019-03-22T20:23:53.615Z,7.30
2019-03-22T20:26:22.187Z,7.20
2019-03-22T20:28:52.748Z,7.20
2019-03-22T20:31:22.366Z,6.90
2019-03-22T20:33:51.846Z,7.10
2019-03-22T20:36:21.415Z,7.30
2019-03-22T20:38:50.969Z,7.40
2019-03-22T20:41:20.599Z,7.40
2019-03-22T20:43:50.275Z,7.30
2019-03-22T20:46:19.824Z,7.20
2019-03-22T20:48:49.636Z,7.20
2019-03-22T20:51:19.250Z,7.10
2019-03-22T20:53:48.623Z,7.00
2019-03-22T20:56:18.089Z,6.70
2019-03-22T20:58:47.557Z,6.50
2019-03-22T21:01:17.392Z,6.10
2019-03-22T21:03:46.885Z,6.20
2019-03-22T21:06:16.357Z,6.10
2019-03-22T21:08:46.032Z,5.90
2019-03-22T21:11:15.588Z,5.80
2019-03-22T21:13:45.538Z,5.80
2019-03-22T21:16:15.138Z,5.80
2019-03-22T21:18:44.665Z,5.70
2019-03-22T21:21:14.044Z,5.80
2019-03-22T21:23:43.503Z,5.60
2019-03-22T21:26:13.040Z,5.70
2019-03-22T21:28:42.667Z,5.60
2019-03-22T21:31:12.183Z,5.50
2019-03-22T21:33:41.656Z,5.40
2019-03-22T21:36:13.239Z,5.40
2019-03-22T21:38:42.820Z,5.20
2019-03-22T21:41:12.363Z,5.20
2019-03-22T21:43:41.777Z,5.20
2019-03-22T21:46:11.257Z,5.20
2019-03-22T21:48:40.922Z,5.30
2019-03-22T21:51:10.568Z,5.20
2019-03-22T21:53:40.049Z,5.40
2019-03-22T21:56:09.658Z,5.40
2019-03-22T21:58:39.106Z,5.50
2019-03-22T22:01:08.548Z,5.60
2019-03-22T22:03:37.963Z,5.70
2019-03-22T22:06:07.523Z,5.70
2019-03-22T22:08:36.903Z,5.70
2019-03-22T22:11:06.552Z,5.60
2019-03-22T22:13:36.457Z,5.50
2019-03-22T22:16:05.904Z,5.30
2019-03-22T22:18:35.359Z,5.10
2019-03-22T22:21:04.841Z,4.80
2019-03-22T22:23:34.221Z,4.90
2019-03-22T22:26:03.880Z,4.70
2019-03-22T22:28:33.478Z,4.80
2019-03-22T22:31:03.025Z,4.80
2019-03-22T22:33:32.421Z,4.80
2019-03-22T22:36:02.280Z,4.80
2019-03-22T22:38:31.830Z,4.70
2019-03-22T22:41:01.372Z,4.60
2019-03-22T22:43:32.874Z,4.50
2019-03-22T22:46:02.590Z,4.40
2019-03-22T22:48:32.064Z,4.20
2019-03-22T22:51:01.447Z,4.20
2019-03-22T22:53:30.888Z,4.10
2019-03-22T22:56:00.399Z,4.10
2019-03-22T22:58:29.948Z,4.00
2019-03-22T23:00:59.627Z,4.00
2019-03-22T23:03:29.009Z,4.00
2019-03-22T23:06:08.838Z,4.00
2019-03-22T23:08:29.590Z,3.90
2019-03-22T23:10:59.094Z,3.80
2019-03-22T23:13:28.555Z,3.90
2019-03-22T23:15:59.054Z,3.80
2019-03-22T23:18:28.573Z,3.70
2019-03-22T23:20:58.685Z,3.60
2019-03-22T23:23:28.422Z,3.60
2019-03-22T23:25:58.169Z,3.60
2019-03-22T23:28:27.846Z,3.60
2019-03-22T23:30:57.195Z,3.50
2019-03-22T23:33:26.614Z,3.40
2019-03-22T23:35:56.110Z,3.50
2019-03-22T23:38:25.442Z,3.40
2019-03-22T23:40:54.961Z,3.30
2019-03-22T23:43:24.375Z,3.30
2019-03-22T23:45:53.757Z,3.20
2019-03-22T23:48:23.141Z,3.20
2019-03-22T23:50:52.507Z,3.10
2019-03-22T23:53:21.879Z,3.20
2019-03-22T23:55:51.369Z,3.20
2019-03-22T23:58:20.766Z,3.20
